sensor_id;sensor_type;location;lat;lon;timestamp;temperature;humidity
52301;DHT22;38528;53.214;6.562;2022-07-05T00:00:54;15.90;99.90
52301;DHT22;38528;53.214;6.562;2022-07-05T00:03:20;15.40;99.90
52301;DHT22;38528;53.214;6.562;2022-07-05T00:05:46;15.40;99.90
52301;DHT22;38528;53.214;6.562;2022-07-05T00:08:11;15.40;99.90
52301;DHT22;38528;53.214;6.562;2022-07-05T00:10:37;15.40;99.90
52301;DHT22;38528;53.214;6.562;2022-07-05T00:13:03;15.30;99.90
52301;DHT22;38528;53.214;6.562;2022-07-05T00:15:30;15.30;99.90
52301;DHT22;38528;53.214;6.562;2022-07-05T00:17:55;15.30;99.90
52301;DHT22;38528;53.214;6.562;2022-07-05T00:20:21;15.30;99.90
52301;DHT22;38528;53.214;6.562;2022-07-05T00:22:47;15.30;99.90
52301;DHT22;38528;53.214;6.562;2022-07-05T00:25:13;15.20;99.90
52301;DHT22;38528;53.214;6.562;2022-07-05T00:27:39;15.20;99.90
52301;DHT22;38528;53.214;6.562;2022-07-05T00:30:06;15.20;99.90
52301;DHT22;38528;53.214;6.562;2022-07-05T00:32:31;15.20;99.90
52301;DHT22;38528;53.214;6.562;2022-07-05T00:34:57;15.20;99.90
52301;DHT22;38528;53.214;6.562;2022-07-05T00:37:23;15.20;99.90
52301;DHT22;38528;53.214;6.562;2022-07-05T00:39:48;14.90;99.90
52301;DHT22;38528;53.214;6.562;2022-07-05T00:42:14;15.10;99.90
52301;DHT22;38528;53.214;6.562;2022-07-05T00:44:40;15.10;99.90
52301;DHT22;38528;53.214;6.562;2022-07-05T00:47:08;15.00;99.90
52301;DHT22;38528;53.214;6.562;2022-07-05T00:49:34;14.90;99.90
52301;DHT22;38528;53.214;6.562;2022-07-05T00:52:01;15.10;99.90
52301;DHT22;38528;53.214;6.562;2022-07-05T00:54:28;14.80;99.90
52301;DHT22;38528;53.214;6.562;2022-07-05T00:56:54;14.80;99.90
52301;DHT22;38528;53.214;6.562;2022-07-05T00:59:21;14.70;99.90
52301;DHT22;38528;53.214;6.562;2022-07-05T01:01:47;14.70;99.90
52301;DHT22;38528;53.214;6.562;2022-07-05T01:04:13;14.60;99.90
52301;DHT22;38528;53.214;6.562;2022-07-05T01:06:40;14.60;99.90
52301;DHT22;38528;53.214;6.562;2022-07-05T01:09:10;14.60;99.90
52301;DHT22;38528;53.214;6.562;2022-07-05T01:11:47;14.70;99.90
52301;DHT22;38528;53.214;6.562;2022-07-05T01:14:16;14.50;99.90
52301;DHT22;38528;53.214;6.562;2022-07-05T01:16:42;14.50;99.90
52301;DHT22;38528;53.214;6.562;2022-07-05T01:19:10;14.50;99.90
52301;DHT22;38528;53.214;6.562;2022-07-05T01:21:39;14.90;99.90
52301;DHT22;38528;53.214;6.562;2022-07-05T01:24:06;14.50;99.90
52301;DHT22;38528;53.214;6.562;2022-07-05T01:26:32;14.40;99.90
52301;DHT22;38528;53.214;6.562;2022-07-05T01:28:58;14.40;99.90
52301;DHT22;38528;53.214;6.562;2022-07-05T01:31:24;14.40;99.90
52301;DHT22;38528;53.214;6.562;2022-07-05T01:33:50;14.40;99.90
52301;DHT22;38528;53.214;6.562;2022-07-05T01:36:16;14.40;99.90
52301;DHT22;38528;53.214;6.562;2022-07-05T01:38:42;14.40;99.90
52301;DHT22;38528;53.214;6.562;2022-07-05T01:41:08;14.40;99.90
52301;DHT22;38528;53.214;6.562;2022-07-05T01:43:35;14.20;99.90
52301;DHT22;38528;53.214;6.562;2022-07-05T01:46:01;14.20;99.90
52301;DHT22;38528;53.214;6.562;2022-07-05T01:48:28;14.10;99.90
52301;DHT22;38528;53.214;6.562;2022-07-05T01:51:00;14.50;99.90
52301;DHT22;38528;53.214;6.562;2022-07-05T01:53:31;14.10;99.90
52301;DHT22;38528;53.214;6.562;2022-07-05T01:56:01;14.10;99.90
52301;DHT22;38528;53.214;6.562;2022-07-05T01:58:29;14.10;99.90
52301;DHT22;38528;53.214;6.562;2022-07-05T02:00:56;14.20;99.90
52301;DHT22;38528;53.214;6.562;2022-07-05T02:03:22;14.40;99.90
52301;DHT22;38528;53.214;6.562;2022-07-05T02:05:48;14.30;99.90
52301;DHT22;38528;53.214;6.562;2022-07-05T02:08:15;13.90;99.90
52301;DHT22;38528;53.214;6.562;2022-07-05T02:10:42;13.90;99.90
52301;DHT22;38528;53.214;6.562;2022-07-05T02:13:08;13.90;99.90
52301;DHT22;38528;53.214;6.562;2022-07-05T02:15:36;13.80;99.90
52301;DHT22;38528;53.214;6.562;2022-07-05T02:18:03;13.80;99.90
52301;DHT22;38528;53.214;6.562;2022-07-05T02:20:30;13.80;99.90
52301;DHT22;38528;53.214;6.562;2022-07-05T02:22:56;13.80;99.90
52301;DHT22;38528;53.214;6.562;2022-07-05T02:25:22;13.80;99.90
52301;DHT22;38528;53.214;6.562;2022-07-05T02:27:48;13.70;99.90
52301;DHT22;38528;53.214;6.562;2022-07-05T02:30:14;13.70;99.90
52301;DHT22;38528;53.214;6.562;2022-07-05T02:32:40;13.80;99.90
52301;DHT22;38528;53.214;6.562;2022-07-05T02:35:08;13.70;99.90
52301;DHT22;38528;53.214;6.562;2022-07-05T02:37:35;13.60;99.90
52301;DHT22;38528;53.214;6.562;2022-07-05T02:40:00;13.60;99.90
52301;DHT22;38528;53.214;6.562;2022-07-05T02:42:26;13.60;99.90
52301;DHT22;38528;53.214;6.562;2022-07-05T02:44:52;13.90;99.90
52301;DHT22;38528;53.214;6.562;2022-07-05T02:47:17;14.30;99.90
52301;DHT22;38528;53.214;6.562;2022-07-05T02:49:43;13.50;99.90
52301;DHT22;38528;53.214;6.562;2022-07-05T02:52:08;13.50;99.90
52301;DHT22;38528;53.214;6.562;2022-07-05T02:54:34;13.50;99.90
52301;DHT22;38528;53.214;6.562;2022-07-05T02:57:00;13.70;99.90
52301;DHT22;38528;53.214;6.562;2022-07-05T02:59:26;13.50;99.90
52301;DHT22;38528;53.214;6.562;2022-07-05T03:01:51;13.80;99.90
52301;DHT22;38528;53.214;6.562;2022-07-05T03:04:17;13.50;99.90
52301;DHT22;38528;53.214;6.562;2022-07-05T03:06:43;13.40;99.90
52301;DHT22;38528;53.214;6.562;2022-07-05T03:09:09;13.50;99.90
52301;DHT22;38528;53.214;6.562;2022-07-05T03:11:34;14.20;99.90
52301;DHT22;38528;53.214;6.562;2022-07-05T03:14:00;14.00;99.90
52301;DHT22;38528;53.214;6.562;2022-07-05T03:16:25;13.40;99.90
52301;DHT22;38528;53.214;6.562;2022-07-05T03:18:51;13.40;99.90
52301;DHT22;38528;53.214;6.562;2022-07-05T03:21:17;13.50;99.90
52301;DHT22;38528;53.214;6.562;2022-07-05T03:23:43;13.90;99.90
52301;DHT22;38528;53.214;6.562;2022-07-05T03:26:08;13.50;99.90
52301;DHT22;38528;53.214;6.562;2022-07-05T03:28:34;13.50;99.90
52301;DHT22;38528;53.214;6.562;2022-07-05T03:31:00;13.40;99.90
52301;DHT22;38528;53.214;6.562;2022-07-05T03:33:26;13.40;99.90
52301;DHT22;38528;53.214;6.562;2022-07-05T03:35:52;13.50;99.90
52301;DHT22;38528;53.214;6.562;2022-07-05T03:38:18;13.60;99.90
52301;DHT22;38528;53.214;6.562;2022-07-05T03:40:44;14.10;99.90
52301;DHT22;38528;53.214;6.562;2022-07-05T03:43:10;13.40;99.90
52301;DHT22;38528;53.214;6.562;2022-07-05T03:45:35;13.40;99.90
52301;DHT22;38528;53.214;6.562;2022-07-05T03:48:01;13.40;99.90
52301;DHT22;38528;53.214;6.562;2022-07-05T03:50:27;13.40;99.90
52301;DHT22;38528;53.214;6.562;2022-07-05T03:52:53;13.40;99.90
52301;DHT22;38528;53.214;6.562;2022-07-05T03:55:19;13.50;99.90
52301;DHT22;38528;53.214;6.562;2022-07-05T03:57:45;13.40;99.90
52301;DHT22;38528;53.214;6.562;2022-07-05T04:00:13;14.00;99.90
52301;DHT22;38528;53.214;6.562;2022-07-05T04:02:39;13.40;99.90
52301;DHT22;38528;53.214;6.562;2022-07-05T04:05:05;13.40;99.90
52301;DHT22;38528;53.214;6.562;2022-07-05T04:07:31;13.40;99.90
52301;DHT22;38528;53.214;6.562;2022-07-05T04:09:57;13.50;99.90
52301;DHT22;38528;53.214;6.562;2022-07-05T04:12:22;13.60;99.90
52301;DHT22;38528;53.214;6.562;2022-07-05T04:14:48;13.60;99.90
52301;DHT22;38528;53.214;6.562;2022-07-05T04:17:13;13.90;99.90
52301;DHT22;38528;53.214;6.562;2022-07-05T04:19:39;13.90;99.90
52301;DHT22;38528;53.214;6.562;2022-07-05T04:22:05;13.60;99.90
52301;DHT22;38528;53.214;6.562;2022-07-05T04:24:31;13.70;99.90
52301;DHT22;38528;53.214;6.562;2022-07-05T04:26:56;13.70;99.90
52301;DHT22;38528;53.214;6.562;2022-07-05T04:29:22;14.30;99.90
52301;DHT22;38528;53.214;6.562;2022-07-05T04:31:48;14.10;99.90
52301;DHT22;38528;53.214;6.562;2022-07-05T04:34:13;13.90;99.90
52301;DHT22;38528;53.214;6.562;2022-07-05T04:36:39;13.90;99.90
52301;DHT22;38528;53.214;6.562;2022-07-05T04:39:06;14.30;99.90
52301;DHT22;38528;53.214;6.562;2022-07-05T04:41:33;13.90;99.90
52301;DHT22;38528;53.214;6.562;2022-07-05T04:43:59;13.90;99.90
52301;DHT22;38528;53.214;6.562;2022-07-05T04:46:24;13.90;99.90
52301;DHT22;38528;53.214;6.562;2022-07-05T04:48:50;14.00;99.90
52301;DHT22;38528;53.214;6.562;2022-07-05T04:51:16;14.10;99.90
52301;DHT22;38528;53.214;6.562;2022-07-05T04:53:42;14.20;99.90
52301;DHT22;38528;53.214;6.562;2022-07-05T04:56:08;14.10;99.90
52301;DHT22;38528;53.214;6.562;2022-07-05T04:58:34;14.20;99.90
52301;DHT22;38528;53.214;6.562;2022-07-05T05:00:59;14.30;99.90
52301;DHT22;38528;53.214;6.562;2022-07-05T05:03:25;14.30;99.90
52301;DHT22;38528;53.214;6.562;2022-07-05T05:05:51;14.30;99.90
52301;DHT22;38528;53.214;6.562;2022-07-05T05:08:17;14.30;99.90
52301;DHT22;38528;53.214;6.562;2022-07-05T05:10:42;15.00;99.90
52301;DHT22;38528;53.214;6.562;2022-07-05T05:13:08;14.40;99.90
52301;DHT22;38528;53.214;6.562;2022-07-05T05:15:34;14.40;99.90
52301;DHT22;38528;53.214;6.562;2022-07-05T05:17:59;14.60;99.90
52301;DHT22;38528;53.214;6.562;2022-07-05T05:20:25;14.60;99.90
52301;DHT22;38528;53.214;6.562;2022-07-05T05:22:51;14.60;99.90
52301;DHT22;38528;53.214;6.562;2022-07-05T05:25:17;14.60;99.90
52301;DHT22;38528;53.214;6.562;2022-07-05T05:27:47;14.60;99.90
52301;DHT22;38528;53.214;6.562;2022-07-05T05:30:14;15.10;99.90
52301;DHT22;38528;53.214;6.562;2022-07-05T05:32:40;14.70;99.90
52301;DHT22;38528;53.214;6.562;2022-07-05T05:35:06;14.70;99.90
52301;DHT22;38528;53.214;6.562;2022-07-05T05:37:53;14.80;99.90
52301;DHT22;38528;53.214;6.562;2022-07-05T05:40:24;14.90;99.90
52301;DHT22;38528;53.214;6.562;2022-07-05T05:42:51;14.90;99.90
52301;DHT22;38528;53.214;6.562;2022-07-05T05:45:17;14.90;99.90
52301;DHT22;38528;53.214;6.562;2022-07-05T05:47:50;15.00;99.90
52301;DHT22;38528;53.214;6.562;2022-07-05T05:50:43;15.00;99.90
52301;DHT22;38528;53.214;6.562;2022-07-05T05:53:08;15.00;99.90
52301;DHT22;38528;53.214;6.562;2022-07-05T05:55:34;15.10;99.90
52301;DHT22;38528;53.214;6.562;2022-07-05T05:58:18;15.10;99.90
52301;DHT22;38528;53.214;6.562;2022-07-05T06:00:44;15.20;99.90
52301;DHT22;38528;53.214;6.562;2022-07-05T06:03:14;15.20;99.90
52301;DHT22;38528;53.214;6.562;2022-07-05T06:05:40;15.30;99.90
52301;DHT22;38528;53.214;6.562;2022-07-05T06:08:05;15.40;99.90
52301;DHT22;38528;53.214;6.562;2022-07-05T06:10:33;15.50;99.90
52301;DHT22;38528;53.214;6.562;2022-07-05T06:13:01;15.50;99.90
52301;DHT22;38528;53.214;6.562;2022-07-05T06:15:27;15.60;99.90
52301;DHT22;38528;53.214;6.562;2022-07-05T06:17:53;15.60;99.90
52301;DHT22;38528;53.214;6.562;2022-07-05T06:20:21;16.10;99.90
52301;DHT22;38528;53.214;6.562;2022-07-05T06:22:48;15.80;99.90
52301;DHT22;38528;53.214;6.562;2022-07-05T06:25:14;16.00;99.90
52301;DHT22;38528;53.214;6.562;2022-07-05T06:27:47;15.90;99.90
52301;DHT22;38528;53.214;6.562;2022-07-05T06:30:16;16.00;99.90
52301;DHT22;38528;53.214;6.562;2022-07-05T06:32:45;16.00;99.90
52301;DHT22;38528;53.214;6.562;2022-07-05T06:35:11;16.10;99.90
52301;DHT22;38528;53.214;6.562;2022-07-05T06:40:12;16.20;99.90
52301;DHT22;38528;53.214;6.562;2022-07-05T06:42:38;16.30;99.90
52301;DHT22;38528;53.214;6.562;2022-07-05T06:45:07;16.30;99.90
52301;DHT22;38528;53.214;6.562;2022-07-05T06:47:33;16.40;99.90
52301;DHT22;38528;53.214;6.562;2022-07-05T06:49:59;16.50;99.90
52301;DHT22;38528;53.214;6.562;2022-07-05T06:52:25;16.60;99.90
52301;DHT22;38528;53.214;6.562;2022-07-05T06:54:51;16.70;99.90
52301;DHT22;38528;53.214;6.562;2022-07-05T06:57:22;16.70;99.90
52301;DHT22;38528;53.214;6.562;2022-07-05T06:59:49;16.70;99.90
52301;DHT22;38528;53.214;6.562;2022-07-05T07:02:15;16.80;99.90
52301;DHT22;38528;53.214;6.562;2022-07-05T07:04:41;16.80;99.90
52301;DHT22;38528;53.214;6.562;2022-07-05T07:07:06;16.90;99.90
52301;DHT22;38528;53.214;6.562;2022-07-05T07:09:59;17.00;99.90
52301;DHT22;38528;53.214;6.562;2022-07-05T07:12:25;17.00;99.90
52301;DHT22;38528;53.214;6.562;2022-07-05T07:14:51;17.10;99.90
52301;DHT22;38528;53.214;6.562;2022-07-05T07:17:16;17.20;99.90
52301;DHT22;38528;53.214;6.562;2022-07-05T07:19:42;17.30;99.90
52301;DHT22;38528;53.214;6.562;2022-07-05T07:22:08;17.40;99.90
52301;DHT22;38528;53.214;6.562;2022-07-05T07:24:33;17.50;99.90
52301;DHT22;38528;53.214;6.562;2022-07-05T07:26:59;17.60;99.90
52301;DHT22;38528;53.214;6.562;2022-07-05T07:29:36;17.80;99.90
52301;DHT22;38528;53.214;6.562;2022-07-05T07:32:02;18.00;99.90
52301;DHT22;38528;53.214;6.562;2022-07-05T07:34:29;18.20;99.90
52301;DHT22;38528;53.214;6.562;2022-07-05T07:36:55;18.40;99.90
52301;DHT22;38528;53.214;6.562;2022-07-05T07:39:21;18.50;99.90
52301;DHT22;38528;53.214;6.562;2022-07-05T07:41:48;18.50;99.90
52301;DHT22;38528;53.214;6.562;2022-07-05T07:44:13;18.50;99.90
52301;DHT22;38528;53.214;6.562;2022-07-05T07:46:39;18.50;99.90
52301;DHT22;38528;53.214;6.562;2022-07-05T07:49:06;18.60;99.90
52301;DHT22;38528;53.214;6.562;2022-07-05T07:51:32;18.50;99.90
52301;DHT22;38528;53.214;6.562;2022-07-05T07:53:58;18.60;99.90
52301;DHT22;38528;53.214;6.562;2022-07-05T07:56:24;18.80;99.90
52301;DHT22;38528;53.214;6.562;2022-07-05T07:58:49;18.90;99.90
52301;DHT22;38528;53.214;6.562;2022-07-05T08:01:15;19.00;99.90
52301;DHT22;38528;53.214;6.562;2022-07-05T08:03:41;18.90;99.90
52301;DHT22;38528;53.214;6.562;2022-07-05T08:06:08;19.00;99.90
52301;DHT22;38528;53.214;6.562;2022-07-05T08:08:37;18.90;99.90
52301;DHT22;38528;53.214;6.562;2022-07-05T08:11:03;18.90;99.90
52301;DHT22;38528;53.214;6.562;2022-07-05T08:13:29;18.90;99.90
52301;DHT22;38528;53.214;6.562;2022-07-05T08:15:55;18.80;99.90
52301;DHT22;38528;53.214;6.562;2022-07-05T08:18:20;18.90;99.90
52301;DHT22;38528;53.214;6.562;2022-07-05T08:21:05;18.90;99.90
52301;DHT22;38528;53.214;6.562;2022-07-05T08:23:49;19.00;99.90
52301;DHT22;38528;53.214;6.562;2022-07-05T08:26:14;19.00;99.90
52301;DHT22;38528;53.214;6.562;2022-07-05T08:28:40;19.00;99.90
52301;DHT22;38528;53.214;6.562;2022-07-05T08:31:06;19.50;99.90
52301;DHT22;38528;53.214;6.562;2022-07-05T08:33:31;19.20;99.90
52301;DHT22;38528;53.214;6.562;2022-07-05T08:35:57;19.20;99.90
52301;DHT22;38528;53.214;6.562;2022-07-05T08:38:23;19.30;99.90
52301;DHT22;38528;53.214;6.562;2022-07-05T08:40:50;19.30;99.90
52301;DHT22;38528;53.214;6.562;2022-07-05T08:43:18;19.30;99.90
52301;DHT22;38528;53.214;6.562;2022-07-05T08:45:46;19.30;99.90
52301;DHT22;38528;53.214;6.562;2022-07-05T08:48:16;19.30;99.90
52301;DHT22;38528;53.214;6.562;2022-07-05T08:50:43;19.40;99.90
52301;DHT22;38528;53.214;6.562;2022-07-05T08:53:09;19.80;99.90
52301;DHT22;38528;53.214;6.562;2022-07-05T08:55:35;19.60;99.90
52301;DHT22;38528;53.214;6.562;2022-07-05T08:58:01;19.70;99.90
52301;DHT22;38528;53.214;6.562;2022-07-05T09:00:28;19.70;99.90
52301;DHT22;38528;53.214;6.562;2022-07-05T09:02:54;19.70;99.90
52301;DHT22;38528;53.214;6.562;2022-07-05T09:05:21;19.90;99.90
52301;DHT22;38528;53.214;6.562;2022-07-05T09:07:55;19.90;99.90
52301;DHT22;38528;53.214;6.562;2022-07-05T09:10:25;20.20;99.90
52301;DHT22;38528;53.214;6.562;2022-07-05T09:12:51;20.20;99.90
52301;DHT22;38528;53.214;6.562;2022-07-05T09:15:17;20.20;99.90
52301;DHT22;38528;53.214;6.562;2022-07-05T09:17:44;20.20;99.90
52301;DHT22;38528;53.214;6.562;2022-07-05T09:20:13;20.20;99.90
52301;DHT22;38528;53.214;6.562;2022-07-05T09:22:46;20.10;99.90
52301;DHT22;38528;53.214;6.562;2022-07-05T09:25:16;20.20;99.90
52301;DHT22;38528;53.214;6.562;2022-07-05T09:27:53;20.30;99.90
52301;DHT22;38528;53.214;6.562;2022-07-05T09:33:03;20.60;99.90
52301;DHT22;38528;53.214;6.562;2022-07-05T09:35:30;20.80;99.90
52301;DHT22;38528;53.214;6.562;2022-07-05T09:37:56;20.60;99.90
52301;DHT22;38528;53.214;6.562;2022-07-05T09:40:22;20.50;99.90
52301;DHT22;38528;53.214;6.562;2022-07-05T09:42:47;20.40;99.90
52301;DHT22;38528;53.214;6.562;2022-07-05T09:45:24;20.40;99.90
52301;DHT22;38528;53.214;6.562;2022-07-05T09:47:50;20.40;99.90
52301;DHT22;38528;53.214;6.562;2022-07-05T09:50:33;20.10;99.90
52301;DHT22;38528;53.214;6.562;2022-07-05T09:52:59;20.00;99.90
52301;DHT22;38528;53.214;6.562;2022-07-05T09:55:24;20.10;99.90
52301;DHT22;38528;53.214;6.562;2022-07-05T09:57:50;20.40;99.90
52301;DHT22;38528;53.214;6.562;2022-07-05T10:00:18;20.60;99.90
52301;DHT22;38528;53.214;6.562;2022-07-05T10:02:53;20.90;99.90
52301;DHT22;38528;53.214;6.562;2022-07-05T10:05:24;21.30;99.90
52301;DHT22;38528;53.214;6.562;2022-07-05T10:10:20;22.40;99.40
52301;DHT22;38528;53.214;6.562;2022-07-05T10:12:48;23.20;98.40
52301;DHT22;38528;53.214;6.562;2022-07-05T10:15:17;23.20;97.40
52301;DHT22;38528;53.214;6.562;2022-07-05T10:17:56;23.20;97.20
52301;DHT22;38528;53.214;6.562;2022-07-05T10:23:06;24.90;94.20
52301;DHT22;38528;53.214;6.562;2022-07-05T10:25:32;24.50;94.80
52301;DHT22;38528;53.214;6.562;2022-07-05T10:28:00;23.70;95.80
52301;DHT22;38528;53.214;6.562;2022-07-05T10:30:26;23.30;96.60
52301;DHT22;38528;53.214;6.562;2022-07-05T10:32:53;23.20;96.70
52301;DHT22;38528;53.214;6.562;2022-07-05T10:35:20;23.60;95.90
52301;DHT22;38528;53.214;6.562;2022-07-05T10:37:48;24.40;95.00
52301;DHT22;38528;53.214;6.562;2022-07-05T10:40:14;25.30;94.10
52301;DHT22;38528;53.214;6.562;2022-07-05T10:42:43;26.20;94.00
52301;DHT22;38528;53.214;6.562;2022-07-05T10:48:20;30.90;89.30
52301;DHT22;38528;53.214;6.562;2022-07-05T10:53:20;34.00;79.80
52301;DHT22;38528;53.214;6.562;2022-07-05T10:55:48;35.50;78.30
52301;DHT22;38528;53.214;6.562;2022-07-05T11:00:46;32.80;74.10
52301;DHT22;38528;53.214;6.562;2022-07-05T11:03:32;31.30;76.40
52301;DHT22;38528;53.214;6.562;2022-07-05T11:05:57;31.30;75.70
52301;DHT22;38528;53.214;6.562;2022-07-05T11:08:24;31.00;75.00
52301;DHT22;38528;53.214;6.562;2022-07-05T11:11:09;30.20;75.90
52301;DHT22;38528;53.214;6.562;2022-07-05T11:13:41;29.30;75.40
52301;DHT22;38528;53.214;6.562;2022-07-05T11:16:36;28.30;78.70
52301;DHT22;38528;53.214;6.562;2022-07-05T11:19:14;27.30;80.60
52301;DHT22;38528;53.214;6.562;2022-07-05T11:22:02;26.20;82.10
52301;DHT22;38528;53.214;6.562;2022-07-05T11:24:31;25.50;82.40
52301;DHT22;38528;53.214;6.562;2022-07-05T11:27:01;25.10;83.50
52301;DHT22;38528;53.214;6.562;2022-07-05T11:29:43;25.00;84.00
52301;DHT22;38528;53.214;6.562;2022-07-05T11:34:57;25.60;84.00
52301;DHT22;38528;53.214;6.562;2022-07-05T11:37:57;26.00;84.60
52301;DHT22;38528;53.214;6.562;2022-07-05T11:40:31;26.00;84.50
52301;DHT22;38528;53.214;6.562;2022-07-05T11:42:57;26.00;85.60
52301;DHT22;38528;53.214;6.562;2022-07-05T11:45:23;25.60;85.30
52301;DHT22;38528;53.214;6.562;2022-07-05T11:47:53;24.90;84.90
52301;DHT22;38528;53.214;6.562;2022-07-05T11:50:26;24.40;86.10
52301;DHT22;38528;53.214;6.562;2022-07-05T11:52:52;23.90;86.10
52301;DHT22;38528;53.214;6.562;2022-07-05T11:55:17;23.50;86.70
52301;DHT22;38528;53.214;6.562;2022-07-05T11:57:51;23.20;87.30
52301;DHT22;38528;53.214;6.562;2022-07-05T12:00:34;22.90;87.80
52301;DHT22;38528;53.214;6.562;2022-07-05T12:03:13;22.60;88.80
52301;DHT22;38528;53.214;6.562;2022-07-05T12:05:39;22.40;91.80
52301;DHT22;38528;53.214;6.562;2022-07-05T12:08:05;22.30;94.20
52301;DHT22;38528;53.214;6.562;2022-07-05T12:10:31;22.60;95.50
52301;DHT22;38528;53.214;6.562;2022-07-05T12:13:15;22.50;95.90
52301;DHT22;38528;53.214;6.562;2022-07-05T12:15:41;22.30;97.40
52301;DHT22;38528;53.214;6.562;2022-07-05T12:18:08;22.00;98.30
52301;DHT22;38528;53.214;6.562;2022-07-05T12:20:39;21.80;99.70
52301;DHT22;38528;53.214;6.562;2022-07-05T12:23:05;21.50;99.90
52301;DHT22;38528;53.214;6.562;2022-07-05T12:25:33;21.30;99.90
52301;DHT22;38528;53.214;6.562;2022-07-05T12:28:00;21.30;99.90
52301;DHT22;38528;53.214;6.562;2022-07-05T12:30:30;21.40;99.90
52301;DHT22;38528;53.214;6.562;2022-07-05T12:35:40;21.40;99.90
52301;DHT22;38528;53.214;6.562;2022-07-05T12:38:16;21.50;99.90
52301;DHT22;38528;53.214;6.562;2022-07-05T12:40:45;21.60;99.90
52301;DHT22;38528;53.214;6.562;2022-07-05T12:43:13;21.60;99.90
52301;DHT22;38528;53.214;6.562;2022-07-05T12:45:40;21.50;99.90
52301;DHT22;38528;53.214;6.562;2022-07-05T12:48:08;21.40;99.90
52301;DHT22;38528;53.214;6.562;2022-07-05T12:50:45;21.30;99.90
52301;DHT22;38528;53.214;6.562;2022-07-05T12:53:11;21.30;99.90
52301;DHT22;38528;53.214;6.562;2022-07-05T12:56:01;21.20;99.90
52301;DHT22;38528;53.214;6.562;2022-07-05T12:58:53;21.10;99.90
52301;DHT22;38528;53.214;6.562;2022-07-05T13:01:20;20.90;99.90
52301;DHT22;38528;53.214;6.562;2022-07-05T13:04:16;20.70;99.90
52301;DHT22;38528;53.214;6.562;2022-07-05T13:09:12;20.50;99.90
52301;DHT22;38528;53.214;6.562;2022-07-05T13:11:38;20.50;99.90
52301;DHT22;38528;53.214;6.562;2022-07-05T13:14:04;20.50;99.90
52301;DHT22;38528;53.214;6.562;2022-07-05T13:16:30;20.50;99.90
52301;DHT22;38528;53.214;6.562;2022-07-05T13:19:09;20.40;99.90
52301;DHT22;38528;53.214;6.562;2022-07-05T13:21:35;20.40;99.60
52301;DHT22;38528;53.214;6.562;2022-07-05T13:24:01;20.40;99.40
52301;DHT22;38528;53.214;6.562;2022-07-05T13:26:27;20.60;99.10
52301;DHT22;38528;53.214;6.562;2022-07-05T13:28:53;20.70;99.00
52301;DHT22;38528;53.214;6.562;2022-07-05T13:31:19;20.60;98.20
52301;DHT22;38528;53.214;6.562;2022-07-05T13:33:45;20.70;98.30
52301;DHT22;38528;53.214;6.562;2022-07-05T13:36:11;20.80;98.50
52301;DHT22;38528;53.214;6.562;2022-07-05T13:38:37;20.90;98.90
52301;DHT22;38528;53.214;6.562;2022-07-05T13:41:02;20.80;98.70
52301;DHT22;38528;53.214;6.562;2022-07-05T13:43:28;20.80;99.20
52301;DHT22;38528;53.214;6.562;2022-07-05T13:45:54;20.80;99.30
52301;DHT22;38528;53.214;6.562;2022-07-05T13:48:19;20.90;99.40
52301;DHT22;38528;53.214;6.562;2022-07-05T13:50:45;20.90;99.70
52301;DHT22;38528;53.214;6.562;2022-07-05T13:53:11;21.00;99.80
52301;DHT22;38528;53.214;6.562;2022-07-05T13:55:36;21.10;99.90
52301;DHT22;38528;53.214;6.562;2022-07-05T13:58:02;21.10;99.90
52301;DHT22;38528;53.214;6.562;2022-07-05T14:00:28;21.20;99.90
52301;DHT22;38528;53.214;6.562;2022-07-05T14:02:53;21.10;99.90
52301;DHT22;38528;53.214;6.562;2022-07-05T14:05:19;20.60;99.90
52301;DHT22;38528;53.214;6.562;2022-07-05T14:07:48;21.20;99.90
52301;DHT22;38528;53.214;6.562;2022-07-05T14:10:14;21.10;99.90
52301;DHT22;38528;53.214;6.562;2022-07-05T14:12:41;21.10;99.90
52301;DHT22;38528;53.214;6.562;2022-07-05T14:15:07;21.20;99.90
52301;DHT22;38528;53.214;6.562;2022-07-05T14:17:33;21.20;99.00
52301;DHT22;38528;53.214;6.562;2022-07-05T14:19:58;21.10;98.50
52301;DHT22;38528;53.214;6.562;2022-07-05T14:22:24;21.10;98.70
52301;DHT22;38528;53.214;6.562;2022-07-05T14:24:50;21.10;98.70
52301;DHT22;38528;53.214;6.562;2022-07-05T14:27:16;21.10;98.90
52301;DHT22;38528;53.214;6.562;2022-07-05T14:29:42;21.00;98.60
52301;DHT22;38528;53.214;6.562;2022-07-05T14:32:07;21.00;98.90
52301;DHT22;38528;53.214;6.562;2022-07-05T14:34:33;20.80;99.10
52301;DHT22;38528;53.214;6.562;2022-07-05T14:36:59;20.70;99.10
52301;DHT22;38528;53.214;6.562;2022-07-05T14:39:25;20.70;99.30
52301;DHT22;38528;53.214;6.562;2022-07-05T14:41:51;20.50;99.20
52301;DHT22;38528;53.214;6.562;2022-07-05T14:44:17;20.60;99.50
52301;DHT22;38528;53.214;6.562;2022-07-05T14:46:42;20.50;99.40
52301;DHT22;38528;53.214;6.562;2022-07-05T14:49:08;20.30;99.70
52301;DHT22;38528;53.214;6.562;2022-07-05T14:51:34;20.20;99.70
52301;DHT22;38528;53.214;6.562;2022-07-05T14:53:59;20.20;99.90
52301;DHT22;38528;53.214;6.562;2022-07-05T14:56:25;20.20;99.80
52301;DHT22;38528;53.214;6.562;2022-07-05T14:58:51;20.30;99.90
52301;DHT22;38528;53.214;6.562;2022-07-05T15:01:16;20.30;99.90
52301;DHT22;38528;53.214;6.562;2022-07-05T15:03:43;20.30;99.90
52301;DHT22;38528;53.214;6.562;2022-07-05T15:06:09;20.30;99.80
52301;DHT22;38528;53.214;6.562;2022-07-05T15:08:36;20.20;99.90
52301;DHT22;38528;53.214;6.562;2022-07-05T15:11:02;20.20;99.90
52301;DHT22;38528;53.214;6.562;2022-07-05T15:13:28;20.30;99.90
52301;DHT22;38528;53.214;6.562;2022-07-05T15:15:54;20.30;99.90
52301;DHT22;38528;53.214;6.562;2022-07-05T15:18:22;20.30;99.90
52301;DHT22;38528;53.214;6.562;2022-07-05T15:20:48;20.20;99.90
52301;DHT22;38528;53.214;6.562;2022-07-05T15:23:13;20.10;99.90
52301;DHT22;38528;53.214;6.562;2022-07-05T15:25:39;19.90;99.90
52301;DHT22;38528;53.214;6.562;2022-07-05T15:28:05;19.80;99.90
52301;DHT22;38528;53.214;6.562;2022-07-05T15:30:38;19.70;99.90
52301;DHT22;38528;53.214;6.562;2022-07-05T15:33:04;19.60;99.90
52301;DHT22;38528;53.214;6.562;2022-07-05T15:35:30;19.60;99.90
52301;DHT22;38528;53.214;6.562;2022-07-05T15:37:55;19.70;99.90
52301;DHT22;38528;53.214;6.562;2022-07-05T15:40:21;19.70;99.90
52301;DHT22;38528;53.214;6.562;2022-07-05T15:42:47;19.70;99.90
52301;DHT22;38528;53.214;6.562;2022-07-05T15:45:12;19.60;99.90
52301;DHT22;38528;53.214;6.562;2022-07-05T15:47:38;19.60;99.90
52301;DHT22;38528;53.214;6.562;2022-07-05T15:50:09;19.60;99.90
52301;DHT22;38528;53.214;6.562;2022-07-05T15:52:41;19.60;99.90
52301;DHT22;38528;53.214;6.562;2022-07-05T15:55:09;19.60;99.90
52301;DHT22;38528;53.214;6.562;2022-07-05T15:57:34;19.70;99.90
52301;DHT22;38528;53.214;6.562;2022-07-05T16:00:00;19.60;99.90